Hovedside
METAR-TAF:

METAR-TAF

Lufthavner :

Palanga internasjonale lufthavn

Palanga, Litauen

breddegrad: 55-55-12N, lengdegrad: 021-03E, høyde over havet: 10 m

Gjeldene værobservasjon

Denne rapporten ble laget for 18 minutter siden, klokken 04:50 UTC
Vind 8 kt fra Sørøst
Temperatur 13°C
Luftfuktighet 47%
Trykk 1017 hPa
Sikt 10 km eller mer
ingen skyer under 1500 m og ingen bygeskyer

METAR: EYPA 250450Z 13008KT CAVOK 13/02 Q1017

Tid: 08:08 (05:08 UTC)

Varsel

Denne rapporten ble laget for 6 timer og 4 minutter siden, klokken 23:04 UTC
Varsel gyldig fra 25. klokken 00 UTC til 25. klokken 24 UTC
Vind 10 kt fra Sørøst
Sikt 10 km eller mer
ingen skyer under 1500 m og ingen bygeskyer

TAF: EYPA 242304Z 2500/2524 14010KT CAVOK

Værobservasjoner og værvarsel for over 4000 flyplasser (METAR- og TAF-rapporter).

Tilgjengelige stasjoner er representert av de røde og gule prikkene på kartet.

Hold musepekeren over prikken for å se navnet på stasjonen.

Klikk så for å se værobservasjoner og -varsler.

For å forandre kartet kan du klikke på den grønne knappen med svart kryss for å zoome inn, på den grønne knappen med strek for å zoome ut, eller på de grønne pilene for å se tilstøtende kart.


METAR-TAF: